Time;durP1;ratioP1;P1;durP2;ratioP2;P2;SDS_P1;SDS_P2;PMS_P1;PMS_P2;Temp;Humidity;BMP_temperature;BMP_pressure;BME280_temperature;BME280_humidity;BME280_pressure;Samples;Min_cycle;Max_cycle;Signal;HPM_P1;HPM_P2
2022/01/26 00:00:54;;;;;;;49.95;18.52;;;2.30;99.90;;;;;;5080106;28;20032;-67
2022/01/26 00:06:08;;;;;;;47.72;18.13;;;2.30;99.90;;;;;;5080634;28;20112;-67
2022/01/26 00:08:37;;;;;;;47.72;18.35;;;2.30;99.90;;;;;;5080116;28;20051;-67
2022/01/26 00:11:05;;;;;;;48.25;17.98;;;2.30;99.90;;;;;;5079805;28;20029;-67
2022/01/26 00:13:33;;;;;;;49.35;17.67;;;2.30;99.90;;;;;;5080072;28;20399;-67
2022/01/26 00:16:04;;;;;;;52.80;17.10;;;2.30;99.90;;;;;;5079312;28;20393;-67
2022/01/26 00:18:36;;;;;;;53.70;18.05;;;2.30;99.90;;;;;;5079112;28;20029;-67
2022/01/26 00:21:26;;;;;;;59.95;18.70;;;2.30;99.90;;;;;;5078031;28;20033;-67
2022/01/26 00:26:31;;;;;;;48.65;17.55;;;2.30;99.90;;;;;;5097980;28;20392;-67
2022/01/26 00:29:11;;;;;;;45.15;17.17;;;2.30;99.90;;;;;;5098740;28;20039;-67
2022/01/26 00:40:33;;;;;;;44.95;17.10;;;2.20;99.90;;;;;;5099881;28;20031;-67
2022/01/26 00:43:16;;;;;;;44.63;18.67;;;2.20;99.90;;;;;;5100032;28;20032;-67
2022/01/26 00:45:45;;;;;;;51.53;18.70;;;2.20;99.90;;;;;;5099670;28;20416;-67
2022/01/26 00:48:19;;;;;;;53.67;16.98;;;2.20;99.90;;;;;;5099239;28;20328;-67
2022/01/26 00:50:50;;;;;;;50.30;17.45;;;2.20;99.90;;;;;;5099650;28;20020;-67
2022/01/26 00:53:22;;;;;;;43.05;16.35;;;2.20;99.90;;;;;;5099089;28;20047;-67
2022/01/26 00:55:51;;;;;;;49.15;17.45;;;2.20;99.90;;;;;;5081262;28;20042;-67
2022/01/26 00:58:18;;;;;;;45.00;17.23;;;2.20;99.90;;;;;;5098395;28;20020;-67
2022/01/26 01:00:45;;;;;;;53.97;17.70;;;2.20;99.90;;;;;;5098297;28;20020;-67
2022/01/26 01:03:12;;;;;;;57.13;18.83;;;2.20;99.90;;;;;;5098148;28;20042;-67
2022/01/26 01:06:01;;;;;;;51.67;19.30;;;2.20;99.90;;;;;;5080450;28;20343;-67
2022/01/26 01:08:29;;;;;;;56.00;18.70;;;2.20;99.90;;;;;;5097877;28;20020;-67
2022/01/26 01:10:57;;;;;;;50.90;17.27;;;2.20;99.90;;;;;;5080074;28;20032;-68
2022/01/26 01:13:40;;;;;;;52.13;18.63;;;2.10;99.90;;;;;;5097866;28;20081;-67
2022/01/26 01:16:09;;;;;;;53.67;19.50;;;2.20;99.90;;;;;;5097712;28;20020;-67
2022/01/26 01:26:49;;;;;;;36.70;13.82;;;2.10;99.90;;;;;;5078355;28;20444;-67
2022/01/26 01:29:41;;;;;;;52.33;17.63;;;2.10;99.90;;;;;;5078298;28;20375;-67
2022/01/26 01:32:12;;;;;;;53.00;18.27;;;2.10;99.90;;;;;;5062758;28;20062;-67
2022/01/26 01:34:40;;;;;;;54.72;19.05;;;2.10;99.90;;;;;;5078843;28;20028;-67
2022/01/26 01:37:13;;;;;;;62.47;19.20;;;2.00;99.90;;;;;;5060364;28;20082;-67
2022/01/26 01:39:41;;;;;;;58.92;18.92;;;2.00;99.90;;;;;;5077863;28;20024;-67
2022/01/26 01:42:09;;;;;;;52.72;19.88;;;2.00;99.90;;;;;;5077267;28;20420;-67
2022/01/26 01:44:37;;;;;;;60.88;18.17;;;2.00;99.90;;;;;;5077462;28;20028;-67
2022/01/26 01:47:06;;;;;;;59.58;17.83;;;2.00;99.90;;;;;;5077309;28;20025;-67
2022/01/26 01:49:35;;;;;;;61.70;19.33;;;2.00;99.90;;;;;;5060102;28;20040;-67
2022/01/26 01:52:06;;;;;;;62.47;19.00;;;2.00;99.90;;;;;;5077228;28;20024;-67
2022/01/26 01:54:38;;;;;;;59.42;17.45;;;2.00;99.90;;;;;;5076731;28;20051;-67
2022/01/26 01:57:07;;;;;;;61.60;19.73;;;2.00;99.90;;;;;;5059855;28;20078;-67
2022/01/26 01:59:34;;;;;;;59.50;18.55;;;2.00;99.90;;;;;;5059157;28;20035;-67
2022/01/26 02:02:02;;;;;;;58.35;18.75;;;2.00;99.90;;;;;;5077179;28;20017;-68
2022/01/26 02:04:30;;;;;;;57.67;18.08;;;1.90;99.90;;;;;;5077746;28;20024;-67
2022/01/26 02:06:57;;;;;;;55.72;18.00;;;1.90;99.90;;;;;;5059967;28;20048;-67
2022/01/26 02:09:41;;;;;;;54.28;18.42;;;1.90;99.90;;;;;;5077638;28;20031;-67
2022/01/26 02:12:18;;;;;;;65.30;18.88;;;1.90;99.90;;;;;;5077848;28;20020;-67
2022/01/26 02:14:51;;;;;;;56.28;18.55;;;1.90;99.90;;;;;;5077892;28;20020;-68
2022/01/26 02:50:40;;;;;;;54.15;17.17;;;1.80;99.90;;;;;;5099837;28;20093;-67
2022/01/26 02:55:57;;;;;;;59.80;18.58;;;1.80;99.90;;;;;;5086604;28;20445;-67
2022/01/26 03:04:04;;;;;;;63.63;17.17;;;1.70;99.90;;;;;;5086787;28;20327;-67
2022/01/26 03:06:45;;;;;;;49.15;15.45;;;1.70;99.90;;;;;;5100607;28;20036;-67
2022/01/26 03:09:18;;;;;;;51.75;14.60;;;1.70;99.90;;;;;;5100173;28;20103;-67
2022/01/26 03:11:48;;;;;;;59.03;16.90;;;1.70;99.90;;;;;;5084087;28;20020;-67
2022/01/26 03:14:32;;;;;;;61.05;15.98;;;1.70;99.90;;;;;;5100584;28;20016;-67
2022/01/26 03:17:08;;;;;;;59.60;18.23;;;1.70;99.90;;;;;;5100534;28;20042;-67
2022/01/26 03:19:39;;;;;;;58.58;17.58;;;1.70;99.90;;;;;;5099853;28;20027;-67
2022/01/26 03:30:21;;;;;;;60.40;17.92;;;1.70;99.90;;;;;;5084805;28;20016;-67
2022/01/26 03:35:45;;;;;;;64.38;18.58;;;1.70;99.90;;;;;;5085927;28;20027;-67
2022/01/26 03:38:40;;;;;;;64.75;18.00;;;1.70;99.90;;;;;;5084465;28;20055;-67
2022/01/26 03:41:34;;;;;;;67.50;18.63;;;1.70;99.90;;;;;;5100713;28;20336;-67
2022/01/26 03:44:03;;;;;;;70.80;19.17;;;1.70;99.90;;;;;;5100578;28;20085;-68
2022/01/26 03:46:31;;;;;;;69.97;18.35;;;1.70;99.90;;;;;;5100941;28;20032;-67
2022/01/26 03:48:58;;;;;;;63.10;19.25;;;1.70;99.90;;;;;;5082195;28;20065;-67
2022/01/26 03:51:26;;;;;;;59.83;18.92;;;1.70;99.90;;;;;;5099550;28;20024;-67
2022/01/26 03:53:53;;;;;;;62.72;18.48;;;1.70;99.90;;;;;;5099566;28;20020;-67
2022/01/26 03:56:20;;;;;;;64.88;20.00;;;1.70;99.90;;;;;;5081878;28;20037;-67
2022/01/26 03:58:47;;;;;;;66.18;18.23;;;1.70;99.90;;;;;;5099749;28;20432;-67
2022/01/26 04:01:15;;;;;;;67.63;18.90;;;1.70;99.90;;;;;;5080018;28;20032;-67
2022/01/26 04:03:42;;;;;;;74.85;21.17;;;1.70;99.90;;;;;;5081401;28;20031;-67
2022/01/26 04:06:09;;;;;;;65.25;17.15;;;1.70;99.90;;;;;;5099863;28;20071;-67
2022/01/26 04:08:39;;;;;;;72.28;17.98;;;1.70;99.90;;;;;;5081167;28;20055;-67
2022/01/26 04:13:41;;;;;;;77.60;18.98;;;1.70;99.90;;;;;;5100051;28;20052;-68
2022/01/26 04:16:08;;;;;;;68.43;19.73;;;1.70;99.90;;;;;;5099969;28;20107;-67
2022/01/26 04:18:39;;;;;;;62.20;17.20;;;1.60;99.90;;;;;;5082914;28;20065;-67
2022/01/26 04:23:57;;;;;;;67.35;20.75;;;1.60;99.90;;;;;;5099938;28;20028;-67
2022/01/26 04:26:32;;;;;;;55.20;17.40;;;1.60;99.90;;;;;;5100003;28;20052;-67
2022/01/26 04:29:06;;;;;;;61.17;16.50;;;1.60;99.90;;;;;;5099834;28;20013;-67
2022/01/26 04:31:35;;;;;;;64.90;19.65;;;1.60;99.90;;;;;;5098695;28;20093;-67
2022/01/26 04:34:02;;;;;;;60.38;17.08;;;1.60;99.90;;;;;;5098759;28;20047;-67
2022/01/26 04:36:43;;;;;;;65.70;18.42;;;1.60;99.90;;;;;;5098965;28;20404;-67
2022/01/26 04:39:16;;;;;;;58.55;16.60;;;1.60;99.90;;;;;;5098582;28;20103;-67
2022/01/26 04:41:51;;;;;;;62.83;17.38;;;1.60;99.90;;;;;;5098498;28;20020;-67
2022/01/26 04:44:23;;;;;;;61.10;17.50;;;1.60;99.90;;;;;;5098499;28;20024;-67
2022/01/26 04:46:51;;;;;;;67.90;17.77;;;1.70;99.90;;;;;;5082308;28;20028;-67
2022/01/26 04:49:19;;;;;;;73.18;21.05;;;1.60;99.90;;;;;;5098524;28;20012;-67
2022/01/26 04:51:47;;;;;;;67.97;20.17;;;1.60;99.90;;;;;;5099169;28;20026;-68
2022/01/26 04:54:15;;;;;;;75.38;19.73;;;1.70;99.90;;;;;;5099301;28;20012;-67
2022/01/26 04:56:43;;;;;;;62.95;17.42;;;1.70;99.90;;;;;;5081699;28;20347;-67
2022/01/26 04:59:11;;;;;;;56.15;18.92;;;1.70;99.90;;;;;;5081231;28;20024;-67
2022/01/26 05:01:38;;;;;;;66.50;17.55;;;1.70;99.90;;;;;;5099191;28;20020;-67
2022/01/26 05:04:06;;;;;;;64.38;19.45;;;1.60;99.90;;;;;;5081860;28;20073;-68
2022/01/26 05:06:34;;;;;;;63.85;18.60;;;1.60;99.90;;;;;;5099185;28;20099;-67
2022/01/26 05:09:01;;;;;;;71.20;19.35;;;1.60;99.90;;;;;;5099472;28;20016;-67
2022/01/26 05:11:37;;;;;;;55.83;16.40;;;1.60;99.90;;;;;;5099431;28;20036;-67
2022/01/26 05:14:05;;;;;;;74.95;18.33;;;1.60;99.90;;;;;;5097656;28;20021;-67
2022/01/26 05:16:34;;;;;;;67.78;21.05;;;1.60;99.90;;;;;;5098121;28;20024;-67
2022/01/26 05:19:01;;;;;;;68.45;20.42;;;1.50;99.90;;;;;;5097815;28;20095;-68
2022/01/26 05:21:29;;;;;;;75.07;18.67;;;1.50;99.90;;;;;;5080379;28;20020;-67
2022/01/26 05:23:57;;;;;;;65.43;16.85;;;1.50;99.90;;;;;;5098256;28;20020;-68
2022/01/26 05:26:24;;;;;;;64.13;18.88;;;1.50;99.90;;;;;;5079957;28;20335;-67
2022/01/26 05:28:52;;;;;;;68.43;18.27;;;1.50;99.90;;;;;;5079710;28;20035;-67
2022/01/26 05:31:19;;;;;;;69.10;21.20;;;1.50;99.90;;;;;;5098248;28;20020;-67
2022/01/26 05:33:46;;;;;;;67.50;20.30;;;1.50;99.90;;;;;;5063926;28;20020;-67
2022/01/26 05:36:13;;;;;;;83.53;22.45;;;1.50;99.90;;;;;;5080817;28;20046;-67
2022/01/26 05:38:41;;;;;;;77.93;21.20;;;1.50;99.90;;;;;;5098631;28;20034;-67
2022/01/26 05:41:12;;;;;;;68.82;20.25;;;1.50;99.90;;;;;;5098505;28;20423;-68
2022/01/26 05:43:39;;;;;;;64.07;19.38;;;1.50;99.90;;;;;;5098306;28;20058;-67
2022/01/26 05:46:12;;;;;;;64.63;17.42;;;1.50;99.90;;;;;;5098620;28;20024;-67
2022/01/26 05:48:44;;;;;;;65.18;20.92;;;1.50;99.90;;;;;;5098016;28;20031;-67
2022/01/26 05:51:15;;;;;;;75.78;20.70;;;1.50;99.90;;;;;;5098185;28;20020;-67
2022/01/26 05:53:43;;;;;;;71.93;19.95;;;1.50;99.90;;;;;;5097884;28;20028;-67
2022/01/26 05:56:10;;;;;;;68.53;20.77;;;1.50;99.90;;;;;;5079296;28;20024;-67
2022/01/26 05:58:38;;;;;;;66.30;19.38;;;1.50;99.90;;;;;;5097739;28;20020;-68
2022/01/26 06:01:06;;;;;;;67.35;20.02;;;1.50;99.90;;;;;;5097325;28;20166;-67
2022/01/26 06:03:33;;;;;;;88.13;21.02;;;1.40;99.90;;;;;;5097009;28;20384;-67
2022/01/26 06:06:01;;;;;;;84.72;23.70;;;1.40;99.90;;;;;;5098217;28;20043;-67
2022/01/26 06:08:28;;;;;;;84.20;22.38;;;1.40;99.90;;;;;;5096913;28;20039;-67
2022/01/26 06:10:55;;;;;;;70.20;18.67;;;1.50;99.90;;;;;;5097137;28;20024;-67
2022/01/26 06:13:23;;;;;;;45.58;16.25;;;1.40;99.90;;;;;;5096939;28;20300;-68
2022/01/26 06:15:50;;;;;;;70.82;20.02;;;1.40;99.90;;;;;;5079147;28;20077;-67
2022/01/26 06:18:17;;;;;;;85.55;21.77;;;1.50;99.90;;;;;;5079817;28;20030;-67
2022/01/26 06:20:45;;;;;;;66.80;18.33;;;1.40;99.90;;;;;;5097832;28;20332;-67
2022/01/26 06:23:12;;;;;;;79.38;22.98;;;1.40;99.90;;;;;;5097771;28;20111;-67
2022/01/26 06:25:39;;;;;;;84.90;23.25;;;1.40;99.90;;;;;;5096926;28;20048;-68
2022/01/26 06:28:11;;;;;;;74.15;20.10;;;1.40;99.90;;;;;;5097523;28;20024;-67
2022/01/26 06:30:40;;;;;;;84.68;23.83;;;1.40;99.90;;;;;;5080905;28;20081;-67
2022/01/26 06:33:08;;;;;;;79.03;21.50;;;1.40;99.90;;;;;;5097859;28;20322;-67
2022/01/26 06:35:36;;;;;;;84.20;24.55;;;1.40;99.90;;;;;;5080242;28;20017;-67
2022/01/26 06:38:04;;;;;;;87.63;22.20;;;1.40;99.90;;;;;;5096884;28;20111;-67
2022/01/26 06:40:31;;;;;;;88.03;23.23;;;1.40;99.90;;;;;;5096525;28;20323;-67
2022/01/26 06:43:05;;;;;;;92.47;23.73;;;1.40;99.90;;;;;;5096757;28;20027;-67
2022/01/26 06:45:38;;;;;;;96.88;25.02;;;1.40;99.90;;;;;;5096400;28;20428;-67
2022/01/26 06:50:52;;;;;;;76.50;19.00;;;1.40;99.90;;;;;;5082084;28;20043;-67
2022/01/26 06:53:19;;;;;;;67.18;19.60;;;1.40;99.90;;;;;;5096576;28;20069;-67
2022/01/26 06:55:47;;;;;;;79.18;20.85;;;1.40;99.90;;;;;;5096785;28;20056;-67
2022/01/26 06:58:16;;;;;;;82.10;22.05;;;1.40;99.90;;;;;;5096391;28;20050;-67
2022/01/26 07:00:43;;;;;;;94.35;23.52;;;1.40;99.90;;;;;;5079429;28;20035;-68
2022/01/26 07:03:11;;;;;;;91.68;22.83;;;1.40;99.90;;;;;;5097287;28;20039;-67
2022/01/26 07:05:39;;;;;;;81.97;22.70;;;1.40;99.90;;;;;;5097785;28;20370;-68
2022/01/26 07:08:06;;;;;;;85.22;22.83;;;1.40;99.90;;;;;;5097693;28;20078;-68
2022/01/26 07:10:34;;;;;;;84.10;24.20;;;1.40;99.90;;;;;;5079367;28;20020;-67
2022/01/26 07:13:02;;;;;;;96.95;29.00;;;1.30;99.90;;;;;;5098047;28;20358;-68
2022/01/26 07:21:23;;;;;;;131.50;40.38;;;1.40;99.90;;;;;;5096582;28;20082;-68
2022/01/26 07:23:51;;;;;;;126.85;36.75;;;1.40;99.90;;;;;;5096030;28;20028;-68
2022/01/26 07:26:18;;;;;;;104.47;31.75;;;1.40;99.90;;;;;;5096138;28;20059;-68
2022/01/26 07:28:46;;;;;;;97.88;26.83;;;1.30;99.90;;;;;;5061522;28;20021;-68
2022/01/26 07:31:14;;;;;;;87.53;27.48;;;1.30;99.90;;;;;;5096171;28;20439;-67
2022/01/26 07:33:42;;;;;;;107.90;29.95;;;1.30;99.90;;;;;;5096642;28;20029;-67
2022/01/26 07:36:10;;;;;;;84.18;25.27;;;1.30;99.90;;;;;;5080354;28;20020;-67
2022/01/26 07:38:37;;;;;;;102.47;32.53;;;1.30;99.90;;;;;;5099879;28;20024;-68
2022/01/26 07:41:05;;;;;;;103.90;32.58;;;1.40;99.90;;;;;;5081819;28;20036;-68
2022/01/26 07:43:33;;;;;;;89.57;24.85;;;1.40;99.90;;;;;;5082633;28;20423;-67
2022/01/26 07:46:00;;;;;;;96.30;29.58;;;1.40;99.90;;;;;;5083023;28;20043;-68
2022/01/26 07:48:27;;;;;;;80.65;23.75;;;1.40;99.90;;;;;;5101074;28;20107;-67
2022/01/26 07:50:56;;;;;;;97.15;27.67;;;1.40;99.90;;;;;;5101138;28;20028;-67
2022/01/26 07:53:23;;;;;;;89.25;26.33;;;1.40;99.90;;;;;;5083389;28;20150;-68
2022/01/26 07:55:50;;;;;;;77.53;25.30;;;1.40;99.90;;;;;;5100420;28;20024;-68
2022/01/26 07:58:19;;;;;;;89.28;23.27;;;1.40;99.90;;;;;;5082431;28;20028;-68
2022/01/26 08:00:47;;;;;;;100.20;28.05;;;1.40;99.90;;;;;;5065921;28;20107;-67
2022/01/26 08:03:15;;;;;;;98.55;29.10;;;1.40;99.90;;;;;;5099332;28;20047;-68
2022/01/26 08:05:42;;;;;;;92.30;28.83;;;1.40;99.90;;;;;;5099324;28;20027;-68
2022/01/26 08:08:14;;;;;;;98.10;29.75;;;1.40;99.90;;;;;;5081210;28;20028;-68
2022/01/26 08:10:44;;;;;;;72.55;22.27;;;1.40;99.90;;;;;;5082436;28;20048;-68
2022/01/26 08:13:12;;;;;;;88.70;26.85;;;1.40;99.90;;;;;;5099020;28;20024;-68
2022/01/26 08:15:39;;;;;;;95.75;29.40;;;1.40;99.90;;;;;;5099485;28;20020;-69
2022/01/26 08:18:06;;;;;;;98.75;28.80;;;1.40;99.90;;;;;;5098685;28;20046;-68
2022/01/26 08:20:34;;;;;;;94.30;29.80;;;1.40;99.90;;;;;;5099443;28;20054;-68
2022/01/26 08:23:01;;;;;;;91.10;26.80;;;1.40;99.90;;;;;;5099748;28;20022;-67
2022/01/26 08:25:29;;;;;;;94.53;26.88;;;1.40;99.90;;;;;;5078233;28;20048;-68
2022/01/26 08:28:04;;;;;;;106.25;29.75;;;1.40;99.90;;;;;;5079570;28;20038;-68
2022/01/26 08:30:36;;;;;;;112.15;28.90;;;1.40;99.90;;;;;;5079137;28;20024;-68
2022/01/26 08:33:06;;;;;;;85.55;26.20;;;1.40;99.90;;;;;;5080393;28;20107;-68
2022/01/26 08:35:35;;;;;;;103.20;29.65;;;1.40;99.90;;;;;;5079527;28;20412;-67
2022/01/26 08:38:04;;;;;;;87.65;25.95;;;1.40;99.90;;;;;;5078513;28;20450;-68
2022/01/26 08:40:33;;;;;;;92.78;28.35;;;1.40;99.90;;;;;;5079531;28;20024;-68
2022/01/26 08:43:01;;;;;;;113.43;31.33;;;1.30;99.90;;;;;;5079364;28;20052;-72
2022/01/26 08:45:28;;;;;;;88.57;26.13;;;1.30;99.90;;;;;;5078566;28;20031;-72
2022/01/26 08:47:56;;;;;;;94.75;27.65;;;1.40;99.90;;;;;;5077515;28;20101;-70
2022/01/26 08:50:23;;;;;;;85.60;26.30;;;1.40;99.90;;;;;;5079064;28;20052;-72
2022/01/26 08:52:51;;;;;;;106.65;31.80;;;1.40;99.90;;;;;;5078223;28;20075;-72
2022/01/26 08:55:19;;;;;;;114.35;34.15;;;1.40;99.90;;;;;;5078823;28;20092;-72
2022/01/26 08:57:46;;;;;;;93.95;29.38;;;1.40;99.90;;;;;;5078187;28;20023;-72
2022/01/26 09:00:14;;;;;;;82.75;27.33;;;1.40;99.90;;;;;;5078672;28;20506;-72
2022/01/26 09:02:41;;;;;;;94.85;27.73;;;1.40;99.90;;;;;;5078546;28;20427;-72
2022/01/26 09:05:09;;;;;;;92.80;27.92;;;1.40;99.90;;;;;;5060358;28;20025;-72
2022/01/26 09:07:40;;;;;;;126.50;34.45;;;1.40;99.90;;;;;;5078360;28;20082;-72
2022/01/26 09:10:07;;;;;;;99.82;28.63;;;1.40;99.90;;;;;;5078697;28;20432;-71
2022/01/26 09:12:38;;;;;;;100.22;25.60;;;1.40;99.90;;;;;;5077901;28;20025;-71
2022/01/26 09:15:07;;;;;;;92.60;26.65;;;1.40;99.90;;;;;;5077857;28;20100;-71
2022/01/26 09:17:35;;;;;;;90.25;26.30;;;1.40;99.90;;;;;;5079459;28;20455;-71
2022/01/26 09:20:06;;;;;;;100.25;26.83;;;1.30;99.90;;;;;;5079263;28;20119;-70
2022/01/26 09:22:34;;;;;;;97.97;26.33;;;1.30;99.90;;;;;;5077767;28;20028;-71
2022/01/26 09:25:01;;;;;;;91.68;26.55;;;1.30;99.90;;;;;;5087578;28;20118;-75
2022/01/26 09:27:29;;;;;;;95.57;26.98;;;1.20;99.90;;;;;;5098744;28;20461;-72
2022/01/26 09:29:57;;;;;;;96.90;28.27;;;1.20;99.90;;;;;;5098839;28;20411;-72
2022/01/26 09:32:24;;;;;;;83.43;24.05;;;1.20;99.90;;;;;;5080390;28;20020;-73
2022/01/26 09:34:51;;;;;;;90.93;25.30;;;1.20;99.90;;;;;;5079771;28;20064;-73
2022/01/26 09:37:19;;;;;;;100.63;26.58;;;1.20;99.90;;;;;;5097574;28;20032;-73
2022/01/26 09:39:48;;;;;;;77.13;21.92;;;1.20;99.90;;;;;;5097495;28;20526;-73
2022/01/26 09:42:17;;;;;;;96.15;23.55;;;1.20;99.90;;;;;;5097671;28;20035;-73
2022/01/26 09:44:45;;;;;;;93.13;26.08;;;1.30;99.90;;;;;;5097535;28;20331;-72
2022/01/26 09:47:12;;;;;;;66.78;19.98;;;1.30;99.90;;;;;;5097506;28;20028;-72
2022/01/26 09:49:40;;;;;;;90.03;26.10;;;1.30;99.90;;;;;;5097931;28;20070;-72
2022/01/26 09:52:19;;;;;;;86.03;26.77;;;1.30;99.90;;;;;;5098390;28;20098;-71
2022/01/26 09:54:48;;;;;;;84.60;24.08;;;1.30;99.90;;;;;;5098013;28;20027;-72
2022/01/26 09:57:16;;;;;;;92.38;25.88;;;1.30;99.90;;;;;;5098185;28;20088;-73
2022/01/26 09:59:43;;;;;;;100.18;26.27;;;1.30;99.90;;;;;;5063529;28;20436;-73
2022/01/26 10:02:28;;;;;;;84.70;25.85;;;1.40;99.90;;;;;;5080420;28;20344;-67
2022/01/26 10:05:06;;;;;;;111.20;27.40;;;1.40;99.90;;;;;;5097953;28;20024;-67
2022/01/26 10:18:08;;;;;;;95.22;27.17;;;1.50;99.90;;;;;;5096967;28;20027;-66
2022/01/26 10:20:53;;;;;;;86.00;26.42;;;1.50;99.90;;;;;;5096934;28;20020;-67
2022/01/26 10:23:24;;;;;;;92.22;25.85;;;1.50;99.90;;;;;;5078854;28;20035;-67
2022/01/26 10:26:13;;;;;;;86.75;24.90;;;1.60;99.90;;;;;;5096421;28;20060;-67
2022/01/26 10:29:00;;;;;;;108.05;28.63;;;1.60;99.90;;;;;;5096584;28;20043;-67
2022/01/26 10:31:31;;;;;;;100.07;27.15;;;1.60;99.90;;;;;;5078960;28;20045;-68
2022/01/26 10:34:08;;;;;;;90.70;26.70;;;1.70;99.90;;;;;;5097593;28;20012;-67
2022/01/26 10:36:44;;;;;;;66.57;22.67;;;1.70;99.90;;;;;;5097819;28;20040;-67
2022/01/26 10:39:29;;;;;;;97.43;29.63;;;1.70;99.90;;;;;;5097469;28;20034;-67
2022/01/26 10:42:04;;;;;;;116.05;29.00;;;1.80;99.90;;;;;;5097383;28;20032;-67
2022/01/26 10:44:58;;;;;;;98.30;25.30;;;1.90;99.90;;;;;;5097348;28;20103;-67
2022/01/26 10:47:32;;;;;;;74.97;25.15;;;1.90;99.90;;;;;;5098078;28;20027;-67
2022/01/26 10:50:28;;;;;;;104.00;28.45;;;2.00;99.90;;;;;;5097433;28;20032;-67
2022/01/26 10:53:05;;;;;;;105.43;27.50;;;2.00;99.90;;;;;;5096382;28;20024;-67
2022/01/26 10:55:37;;;;;;;87.10;26.05;;;2.00;99.90;;;;;;5096565;28;20078;-67
2022/01/26 10:58:07;;;;;;;98.55;27.67;;;1.90;99.90;;;;;;5078534;28;20021;-67
2022/01/26 11:00:41;;;;;;;90.65;28.92;;;1.90;99.90;;;;;;5096407;28;20027;-67
2022/01/26 11:03:10;;;;;;;90.95;26.27;;;1.90;99.90;;;;;;5097252;28;20008;-68
2022/01/26 11:05:38;;;;;;;81.20;24.95;;;1.90;99.90;;;;;;5096638;28;20025;-67
2022/01/26 11:08:09;;;;;;;109.05;30.33;;;1.90;99.90;;;;;;5096921;28;20020;-67
2022/01/26 11:10:39;;;;;;;95.95;26.88;;;1.90;99.90;;;;;;5097185;28;20024;-67
2022/01/26 11:13:07;;;;;;;92.55;27.00;;;1.90;99.90;;;;;;5082472;28;20028;-67
2022/01/26 11:15:35;;;;;;;90.25;27.13;;;2.00;99.90;;;;;;5101436;28;20070;-67
2022/01/26 11:18:12;;;;;;;94.65;29.17;;;1.90;99.90;;;;;;5101524;28;20031;-67
2022/01/26 11:20:51;;;;;;;94.88;26.98;;;1.90;99.90;;;;;;5103075;28;20478;-68
2022/01/26 11:23:20;;;;;;;83.90;25.38;;;1.90;99.90;;;;;;5101682;28;20020;-67
2022/01/26 11:25:49;;;;;;;91.50;26.42;;;1.80;99.90;;;;;;5100869;28;20040;-67
2022/01/26 11:28:29;;;;;;;86.10;23.80;;;1.80;99.90;;;;;;5082977;28;20057;-67
2022/01/26 11:31:04;;;;;;;102.13;28.58;;;1.80;99.90;;;;;;5083141;28;20024;-67
2022/01/26 11:33:35;;;;;;;106.43;26.13;;;1.80;99.90;;;;;;5100670;28;20020;-67
2022/01/26 11:36:03;;;;;;;104.32;29.15;;;1.80;99.90;;;;;;5099890;28;20439;-67
2022/01/26 11:47:18;;;;;;;103.93;28.50;;;1.80;99.90;;;;;;5100411;28;20077;-67
2022/01/26 11:49:46;;;;;;;108.15;27.77;;;1.80;99.90;;;;;;5099641;28;20032;-67
2022/01/26 11:52:35;;;;;;;105.85;27.83;;;1.80;99.90;;;;;;5099575;28;20072;-67
2022/01/26 11:55:36;;;;;;;99.70;28.90;;;1.80;99.90;;;;;;5099440;28;20027;-67
2022/01/26 11:58:14;;;;;;;88.63;27.23;;;1.80;99.90;;;;;;5100794;28;20028;-67
2022/01/26 12:01:12;;;;;;;66.45;23.00;;;1.80;99.90;;;;;;5100388;28;20058;-67
2022/01/26 12:04:00;;;;;;;110.35;30.65;;;1.90;99.90;;;;;;5100184;28;20035;-67
2022/01/26 12:06:28;;;;;;;111.28;31.35;;;1.80;99.90;;;;;;5100762;28;20102;-67
2022/01/26 12:08:58;;;;;;;105.13;31.08;;;1.90;99.90;;;;;;5100275;28;20028;-67
2022/01/26 12:11:30;;;;;;;104.32;30.27;;;1.80;99.90;;;;;;5100298;28;20051;-67
2022/01/26 12:14:05;;;;;;;93.00;28.88;;;1.80;99.90;;;;;;5100174;28;20023;-67
2022/01/26 12:16:41;;;;;;;105.18;29.20;;;1.80;99.90;;;;;;5100084;28;20043;-67
2022/01/26 12:36:12;;;;;;;97.55;28.70;;;2.00;99.90;;;;;;5099496;28;20069;-67
2022/01/26 12:38:45;;;;;;;117.85;30.55;;;2.00;99.90;;;;;;5098868;28;20027;-68
2022/01/26 12:43:55;;;;;;;118.80;31.77;;;2.00;99.90;;;;;;5099658;28;20065;-68
2022/01/26 12:46:33;;;;;;;98.82;30.67;;;2.00;99.90;;;;;;5099759;28;20052;-67
2022/01/26 12:49:06;;;;;;;100.93;28.05;;;2.00;99.90;;;;;;5082010;28;20031;-67
2022/01/26 12:51:42;;;;;;;102.40;30.23;;;2.00;99.90;;;;;;5100013;28;20020;-66
2022/01/26 12:54:09;;;;;;;85.07;25.63;;;2.10;99.90;;;;;;5099655;28;20326;-67
2022/01/26 12:56:37;;;;;;;80.88;26.63;;;2.10;99.90;;;;;;5099514;28;20173;-67
2022/01/26 12:59:12;;;;;;;102.35;28.05;;;2.10;99.90;;;;;;5099128;28;20024;-67
2022/01/26 13:01:41;;;;;;;101.88;27.73;;;2.10;99.90;;;;;;5098694;28;20020;-67
2022/01/26 13:04:13;;;;;;;87.63;24.00;;;2.10;99.90;;;;;;5099200;28;20032;-67
2022/01/26 13:06:53;;;;;;;114.45;28.70;;;2.10;99.90;;;;;;5080580;28;20063;-68
2022/01/26 13:09:31;;;;;;;82.25;26.63;;;2.10;99.90;;;;;;5098045;28;20032;-67
2022/01/26 13:12:02;;;;;;;108.05;31.80;;;2.00;99.90;;;;;;5098480;28;20034;-67
2022/01/26 13:14:43;;;;;;;96.38;27.00;;;2.00;99.90;;;;;;5098008;28;20016;-68
2022/01/26 13:17:30;;;;;;;130.65;35.67;;;2.00;99.90;;;;;;5098699;28;20030;-67
2022/01/26 13:23:07;;;;;;;96.32;29.48;;;2.00;99.90;;;;;;5099540;28;20031;-67
2022/01/26 13:31:45;;;;;;;140.45;36.67;;;2.00;99.90;;;;;;5098893;28;20029;-68
2022/01/26 13:34:40;;;;;;;122.78;33.00;;;2.00;99.90;;;;;;5097519;28;20028;-66
2022/01/26 13:37:20;;;;;;;137.35;35.97;;;1.90;99.90;;;;;;5098349;28;20439;-66
2022/01/26 13:40:05;;;;;;;106.78;30.48;;;1.90;99.90;;;;;;5098356;28;20416;-66
2022/01/26 13:43:10;;;;;;;132.40;34.42;;;1.90;99.90;;;;;;5097819;28;20058;-67
2022/01/26 13:45:52;;;;;;;135.25;35.38;;;1.90;99.90;;;;;;5097692;28;20103;-68
2022/01/26 13:48:50;;;;;;;124.97;31.90;;;1.90;99.90;;;;;;5097016;28;20421;-68
2022/01/26 13:51:32;;;;;;;138.02;32.92;;;1.90;99.90;;;;;;5097227;28;20020;-68
2022/01/26 13:57:10;;;;;;;153.88;37.03;;;1.90;99.90;;;;;;5097588;28;20034;-67
2022/01/26 13:59:45;;;;;;;136.80;35.00;;;1.90;99.90;;;;;;5097257;28;20027;-67
2022/01/26 14:02:14;;;;;;;145.85;39.42;;;1.90;99.90;;;;;;5097121;28;20024;-67
2022/01/26 14:04:41;;;;;;;144.95;38.75;;;1.90;99.90;;;;;;5079851;28;20028;-67
2022/01/26 14:07:08;;;;;;;135.68;36.20;;;1.90;99.90;;;;;;5097895;28;20032;-68
2022/01/26 14:09:37;;;;;;;169.07;37.55;;;1.90;99.90;;;;;;5098404;28;20100;-68
2022/01/26 14:12:10;;;;;;;163.57;42.15;;;1.90;99.90;;;;;;5097889;28;20047;-68
2022/01/26 14:14:43;;;;;;;148.00;36.55;;;1.90;99.90;;;;;;5098217;28;20051;-69
2022/01/26 14:17:16;;;;;;;128.88;33.83;;;1.90;99.90;;;;;;5098059;28;20052;-69
2022/01/26 14:20:39;;;;;;;131.77;31.92;;;1.90;99.90;;;;;;5080729;28;20032;-69
2022/01/26 14:23:02;;;;;;;141.57;35.05;;;1.90;99.90;;;;;;5094217;28;20039;-68
2022/01/26 14:25:29;;;;;;;122.05;32.67;;;2.00;99.90;;;;;;5096392;28;20058;-68
2022/01/26 14:28:04;;;;;;;141.98;32.97;;;2.00;99.90;;;;;;5079617;28;20024;-68
2022/01/26 14:36:05;;;;;;;158.43;37.03;;;2.00;99.90;;;;;;5096959;28;20024;-68
2022/01/26 15:08:48;;;;;;;99.60;24.88;;;2.10;99.90;;;;;;5096395;28;20032;-68
2022/01/26 15:35:22;;;;;;;92.35;24.58;;;2.10;99.90;;;;;;5097078;28;20022;-68
2022/01/26 16:05:00;;;;;;;68.15;20.45;;;1.90;99.90;;;;;;5099749;28;20063;-70
2022/01/26 16:07:28;;;;;;;93.35;22.00;;;1.90;99.90;;;;;;5098509;28;20317;-70
2022/01/26 16:16:32;;;;;;;111.35;25.60;;;1.90;99.90;;;;;;5100217;28;20104;-70
2022/01/26 16:19:41;;;;;;;73.28;19.40;;;1.90;99.90;;;;;;5100613;28;20482;-71
2022/01/26 16:21:26;;;;;;;104.82;26.75;;;1.90;99.90;;;;;;5099915;28;20042;-70
2022/01/26 16:27:35;;;;;;;72.18;19.95;;;1.90;99.90;;;;;;5079206;28;20343;-70
2022/01/26 17:02:38;;;;;;;99.85;24.15;;;1.90;99.90;;;;;;5079316;28;20032;-69
2022/01/26 17:25:21;;;;;;;87.07;21.47;;;1.90;99.90;;;;;;5078622;28;20078;-69
2022/01/26 18:16:42;;;;;;;79.85;21.30;;;2.00;99.90;;;;;;5097289;28;20073;-68
2022/01/26 18:32:56;;;;;;;63.38;17.10;;;2.00;99.90;;;;;;5097726;28;20504;-68
2022/01/26 18:49:21;;;;;;;64.75;18.77;;;2.10;99.90;;;;;;5096498;28;20320;-68
2022/01/26 18:51:56;;;;;;;65.22;16.98;;;2.10;99.90;;;;;;5097310;28;20023;-68
2022/01/26 18:54:27;;;;;;;67.53;17.88;;;2.10;99.90;;;;;;5096975;28;20020;-68
2022/01/26 18:56:56;;;;;;;63.55;18.65;;;2.10;99.90;;;;;;5096412;28;20317;-68
2022/01/26 18:59:24;;;;;;;69.88;18.45;;;2.10;99.90;;;;;;5097605;28;20091;-68
2022/01/26 19:01:53;;;;;;;57.90;16.73;;;2.10;99.90;;;;;;5097568;28;20069;-68
2022/01/26 19:04:31;;;;;;;57.58;19.27;;;2.10;99.90;;;;;;5097323;28;20031;-68